Time;durP1;ratioP1;P1;durP2;ratioP2;P2;SDS_P1;SDS_P2;PMS_P1;PMS_P2;Temp;Humidity;BMP_temperature;BMP_pressure;BME280_temperature;BME280_humidity;BME280_pressure;Samples;Min_cycle;Max_cycle;Signal;HPM_P1;HPM_P2
2023/11/23 00:00:20;;;;;;;16.50;11.90;;;1.50;71.30;;;0.58;75.38;99005.63;4947460;29;20536;-66
2023/11/23 00:02:46;;;;;;;22.70;12.23;;;1.40;71.50;;;0.74;74.58;99016.69;4942896;28;20500;-66
2023/11/23 00:05:14;;;;;;;18.47;13.07;;;1.50;71.50;;;0.67;74.54;99007.50;4943656;28;20801;-67
2023/11/23 00:07:41;;;;;;;18.77;12.47;;;1.50;71.30;;;0.16;74.93;98930.13;4945219;28;20474;-67
2023/11/23 00:10:10;;;;;;;21.53;14.07;;;1.50;71.60;;;0.62;75.06;98991.09;4947042;28;20454;-66
2023/11/23 00:12:40;;;;;;;18.97;12.70;;;1.50;71.40;;;0.63;74.70;98982.13;4950368;28;20482;-66
2023/11/23 00:15:09;;;;;;;19.60;12.70;;;1.50;71.40;;;0.28;75.24;98942.41;4947117;29;20566;-67
2023/11/23 00:17:37;;;;;;;21.33;14.23;;;1.40;71.30;;;0.38;76.05;98990.34;4951359;29;20468;-67
2023/11/23 00:20:06;;;;;;;19.27;13.20;;;1.40;71.60;;;0.42;75.54;99006.91;4952479;28;20460;-67
2023/11/23 00:22:34;;;;;;;19.00;13.37;;;1.40;71.60;;;0.38;76.07;99024.03;4950983;28;20475;-66
2023/11/23 00:25:03;;;;;;;20.43;13.80;;;1.30;71.60;;;0.32;76.15;99005.94;4950111;28;21044;-68
2023/11/23 00:27:31;;;;;;;20.50;13.30;;;1.30;72.00;;;0.50;76.14;99014.25;4950487;29;20466;-68
2023/11/23 00:30:00;;;;;;;19.70;12.77;;;1.30;72.10;;;0.51;76.25;99011.44;4950323;28;20450;-67
2023/11/23 00:32:27;;;;;;;20.00;13.73;;;1.30;72.10;;;0.47;76.14;99010.00;4955182;28;20477;-67
2023/11/23 00:34:55;;;;;;;18.70;13.03;;;1.40;72.30;;;0.52;76.51;99006.97;4946738;28;20468;-67
2023/11/23 00:37:22;;;;;;;23.73;14.03;;;1.40;72.20;;;0.54;76.29;98999.72;4947110;28;20469;-66
2023/11/23 00:39:49;;;;;;;19.67;12.97;;;1.40;72.20;;;0.44;76.48;98994.31;4947855;28;20498;-65
2023/11/23 00:42:16;;;;;;;16.70;12.37;;;1.40;72.30;;;0.41;75.99;98994.56;4950556;28;21004;-66
2023/11/23 00:44:44;;;;;;;19.67;14.30;;;1.30;72.10;;;0.28;77.03;98981.41;4950476;28;20486;-66
2023/11/23 00:47:12;;;;;;;21.47;13.30;;;1.20;72.40;;;0.12;77.33;98977.34;4951239;28;20983;-65
2023/11/23 00:49:40;;;;;;;19.60;13.43;;;1.20;72.50;;;0.04;78.05;98955.03;4951586;28;20452;-65
2023/11/23 00:52:07;;;;;;;22.10;14.20;;;1.10;72.70;;;0.12;77.63;98969.38;4950942;29;20470;-65
2023/11/23 00:54:38;;;;;;;18.63;13.07;;;1.10;72.90;;;0.12;77.98;98977.34;4949934;29;20460;-65
2023/11/23 00:57:06;;;;;;;20.83;13.10;;;1.00;73.30;;;0.12;77.99;98979.19;4940716;29;20518;-65
2023/11/23 00:59:33;;;;;;;17.83;12.63;;;1.00;73.40;;;0.07;78.30;98984.00;4939407;28;20465;-65
2023/11/23 01:02:01;;;;;;;16.10;12.73;;;0.90;73.30;;;0.07;77.88;98976.91;4940551;28;20456;-66
2023/11/23 01:04:30;;;;;;;18.33;13.10;;;1.00;73.30;;;-0.04;78.21;98953.00;4938405;28;20789;-66
2023/11/23 01:06:57;;;;;;;17.27;12.50;;;1.00;73.30;;;-0.03;78.09;98960.88;4938740;28;20460;-66
2023/11/23 01:09:23;;;;;;;16.90;12.40;;;1.00;73.40;;;-0.05;78.17;98969.91;4947775;28;20467;-65
2023/11/23 01:11:51;;;;;;;18.00;12.17;;;1.00;73.00;;;0.10;78.04;98981.13;4940580;28;20476;-65
2023/11/23 01:14:18;;;;;;;15.80;12.17;;;1.00;73.10;;;0.04;77.88;98963.00;4938564;28;20788;-66
2023/11/23 01:16:45;;;;;;;18.20;11.73;;;1.00;73.40;;;0.08;77.70;98961.81;4955903;28;20449;-66
2023/11/23 01:19:13;;;;;;;16.77;12.67;;;1.00;72.90;;;-0.05;77.67;98946.84;4946398;28;20474;-66
2023/11/23 01:21:42;;;;;;;18.63;12.70;;;1.10;72.90;;;-0.14;78.02;98921.03;4940189;28;20456;-66
2023/11/23 01:24:11;;;;;;;14.90;10.47;;;1.10;72.90;;;0.00;78.06;98949.16;4937936;28;20786;-67
2023/11/23 01:26:40;;;;;;;17.50;12.30;;;1.00;73.10;;;0.13;77.60;98964.94;4952110;28;20850;-65
2023/11/23 01:29:07;;;;;;;16.97;10.93;;;1.10;73.00;;;0.07;77.33;98947.66;4940287;28;20474;-66
2023/11/23 01:31:34;;;;;;;15.43;10.93;;;1.10;73.10;;;0.12;77.49;98961.41;4941381;28;20564;-65
2023/11/23 01:34:01;;;;;;;14.77;11.00;;;1.00;73.20;;;0.17;77.58;98960.22;4941749;28;20467;-65
2023/11/23 01:36:28;;;;;;;15.47;10.97;;;1.00;73.30;;;0.17;77.50;98974.34;4945306;29;20466;-66
2023/11/23 01:38:57;;;;;;;19.00;12.40;;;1.00;73.20;;;-0.08;77.58;98941.78;4948217;29;20511;-66
2023/11/23 01:41:24;;;;;;;16.33;11.23;;;1.00;73.30;;;0.08;77.81;98973.28;4948584;28;20516;-66
2023/11/23 01:43:51;;;;;;;18.37;11.57;;;1.00;73.40;;;0.12;77.67;98984.50;4950203;29;20858;-67
2023/11/23 01:46:18;;;;;;;17.77;11.63;;;0.90;73.50;;;0.08;78.00;98986.56;4947446;28;20474;-66
2023/11/23 01:48:46;;;;;;;17.40;10.90;;;1.00;73.50;;;0.06;78.14;98984.97;4950840;28;20574;-66
2023/11/23 01:51:14;;;;;;;17.57;10.63;;;1.00;73.40;;;0.03;78.21;98999.38;4948705;28;20451;-67
2023/11/23 01:53:42;;;;;;;17.03;11.90;;;0.90;73.30;;;0.02;78.07;98999.50;4949864;29;20860;-67
2023/11/23 01:56:12;;;;;;;16.07;10.73;;;0.90;73.50;;;-0.11;78.89;98995.16;4944256;29;20504;-68
2023/11/23 01:58:40;;;;;;;18.37;11.67;;;0.80;73.70;;;-0.11;79.12;98989.84;4941601;28;20490;-66
2023/11/23 02:01:07;;;;;;;18.50;12.33;;;0.70;74.10;;;-0.30;79.43;98970.06;4942406;28;20465;-66
2023/11/23 02:03:35;;;;;;;19.73;11.43;;;0.70;74.40;;;-0.32;80.20;98972.00;4937485;28;20464;-66
2023/11/23 02:06:03;;;;;;;15.50;10.87;;;0.70;74.70;;;-0.91;80.72;98893.47;4940165;28;20461;-64
2023/11/23 02:08:30;;;;;;;16.70;11.67;;;0.60;74.90;;;-0.39;80.56;98975.28;4939530;28;20534;-65
2023/11/23 02:10:58;;;;;;;16.93;11.13;;;0.60;74.90;;;-0.44;80.42;98957.91;4937321;28;20898;-68
2023/11/23 02:13:27;;;;;;;15.80;11.40;;;0.50;74.90;;;-0.33;80.46;98954.41;4945881;28;20994;-66
2023/11/23 02:15:54;;;;;;;15.80;11.23;;;0.60;75.20;;;-0.33;80.56;98946.44;4938732;29;20455;-65
2023/11/23 02:18:21;;;;;;;16.57;11.40;;;0.60;75.20;;;-0.30;80.34;98953.31;4937842;29;20476;-64
2023/11/23 02:20:48;;;;;;;17.40;11.43;;;0.60;75.10;;;-0.27;80.52;98941.56;4943318;28;20462;-66
2023/11/23 02:23:16;;;;;;;13.90;10.33;;;0.60;75.10;;;-0.31;80.46;98933.88;4941719;28;20488;-66
2023/11/23 02:25:44;;;;;;;18.40;11.47;;;0.60;75.30;;;-0.17;80.25;98938.06;4944707;29;20461;-66
2023/11/23 02:28:12;;;;;;;17.07;11.87;;;0.70;75.40;;;-0.45;80.39;98891.63;4955710;28;20468;-67
2023/11/23 02:30:39;;;;;;;18.53;12.23;;;0.70;75.60;;;-0.13;79.66;98919.22;4947213;28;20465;-66
2023/11/23 02:33:09;;;;;;;16.27;11.60;;;0.80;74.90;;;-0.11;79.91;98923.44;4946296;28;20489;-67
2023/11/23 02:35:37;;;;;;;17.63;11.87;;;0.80;74.90;;;-0.06;79.58;98918.59;4944962;28;20452;-66
2023/11/23 02:38:04;;;;;;;15.80;11.30;;;0.90;75.00;;;-0.21;80.01;98888.81;4941672;28;20480;-66
2023/11/23 02:40:31;;;;;;;18.50;11.90;;;0.80;75.00;;;-0.08;79.89;98915.19;4947200;28;20468;-67
2023/11/23 02:43:00;;;;;;;16.10;11.60;;;0.80;75.00;;;-0.08;79.81;98920.50;4943105;29;20444;-67
2023/11/23 02:45:27;;;;;;;15.70;11.67;;;0.80;75.00;;;-0.17;80.02;98913.31;4945875;28;20544;-66
2023/11/23 02:47:54;;;;;;;18.93;12.30;;;0.80;75.10;;;-0.24;80.33;98930.69;4947415;28;20481;-66
2023/11/23 02:50:21;;;;;;;20.23;11.40;;;0.80;75.30;;;-0.07;79.96;98932.00;4948275;29;20479;-65
2023/11/23 02:52:49;;;;;;;15.43;10.80;;;0.90;75.20;;;-0.08;79.97;98931.16;4945625;28;20471;-67
2023/11/23 02:55:16;;;;;;;17.00;11.27;;;0.90;75.00;;;0.06;79.77;98930.03;4943399;29;20497;-67
2023/11/23 02:57:44;;;;;;;19.37;13.23;;;1.00;75.00;;;0.15;79.34;98936.41;4943537;28;20467;-66
2023/11/23 03:00:14;;;;;;;15.70;11.90;;;1.10;75.00;;;0.30;79.15;98949.41;4943453;28;20471;-65
2023/11/23 03:02:41;;;;;;;14.03;11.23;;;1.20;75.00;;;0.35;79.02;98931.25;4958157;28;20506;-66
2023/11/23 03:05:10;;;;;;;16.33;11.63;;;1.20;74.70;;;0.30;78.75;98925.47;4942593;29;20526;-66
2023/11/23 03:07:37;;;;;;;15.00;11.70;;;1.20;74.60;;;0.41;78.86;98930.75;4938574;28;20459;-65
2023/11/23 03:10:06;;;;;;;16.90;11.83;;;1.30;74.80;;;0.37;78.35;98929.31;4942089;28;20561;-66
2023/11/23 03:12:33;;;;;;;17.57;12.40;;;1.40;74.50;;;0.28;78.68;98917.63;4926249;29;20477;-66
2023/11/23 03:15:02;;;;;;;17.13;12.40;;;1.30;74.60;;;0.41;79.23;98931.59;4939089;28;20474;-66
2023/11/23 03:17:32;;;;;;;18.93;12.40;;;1.30;74.80;;;0.45;78.54;98926.00;4940581;29;20466;-66
2023/11/23 03:19:59;;;;;;;21.00;12.63;;;1.30;74.60;;;0.35;78.96;98916.16;4938819;29;20444;-66
2023/11/23 03:22:26;;;;;;;21.13;14.00;;;1.30;74.50;;;0.35;79.07;98912.63;4940746;28;20979;-66
2023/11/23 03:24:55;;;;;;;19.50;12.73;;;1.30;74.80;;;0.39;79.05;98914.91;4947923;28;20462;-66
2023/11/23 03:27:22;;;;;;;17.50;12.63;;;1.40;74.70;;;0.36;79.33;98924.97;4946419;28;21012;-65
2023/11/23 03:29:49;;;;;;;19.93;13.33;;;1.40;74.80;;;0.39;79.30;98930.03;4945464;28;20461;-66
2023/11/23 03:32:16;;;;;;;17.27;12.37;;;1.30;74.80;;;0.36;79.40;98927.63;4936877;28;21355;-65
2023/11/23 03:34:45;;;;;;;19.73;13.27;;;1.40;74.90;;;0.48;79.29;98921.28;4935352;28;20467;-66
2023/11/23 03:37:12;;;;;;;21.57;13.40;;;1.40;74.90;;;0.51;78.90;98925.50;4941150;28;20460;-65
2023/11/23 03:39:39;;;;;;;19.90;13.33;;;1.50;74.90;;;0.53;79.21;98926.22;4940559;28;20459;-65
2023/11/23 03:42:06;;;;;;;16.87;12.57;;;1.50;74.90;;;0.62;78.66;98928.13;4942684;28;21019;-65
2023/11/23 03:44:33;;;;;;;18.27;13.70;;;1.50;74.90;;;0.54;79.43;98925.25;4946120;28;20946;-66
2023/11/23 03:47:01;;;;;;;17.17;12.27;;;1.50;74.90;;;0.52;79.26;98914.72;4946158;28;20467;-66
2023/11/23 03:49:28;;;;;;;18.60;12.67;;;1.50;75.00;;;0.53;79.25;98919.09;4943323;29;21163;-66
2023/11/23 03:51:57;;;;;;;17.40;12.27;;;1.50;75.00;;;0.55;79.32;98910.97;4945602;29;20523;-65
2023/11/23 03:54:24;;;;;;;17.47;12.00;;;1.50;75.00;;;0.35;80.15;98916.16;4960691;28;20460;-65
2023/11/23 03:56:52;;;;;;;19.80;12.50;;;1.40;75.10;;;0.35;80.53;98915.28;4947166;28;20469;-67
2023/11/23 03:59:19;;;;;;;18.37;12.10;;;1.30;75.30;;;0.20;81.07;98915.59;4944138;28;20559;-66
2023/11/23 04:01:47;;;;;;;19.63;12.47;;;1.20;75.70;;;0.22;80.89;98910.16;4942724;28;20464;-66
2023/11/23 04:04:14;;;;;;;22.07;12.27;;;1.20;75.80;;;0.18;81.47;98909.56;4938928;28;20467;-66
2023/11/23 04:06:41;;;;;;;19.57;13.23;;;1.10;76.10;;;0.26;80.83;98898.28;4937904;28;20466;-66
2023/11/23 04:09:10;;;;;;;20.30;13.57;;;1.20;76.30;;;0.34;81.22;98895.00;4938948;29;20468;-66
2023/11/23 04:11:37;;;;;;;20.13;14.07;;;1.20;76.50;;;-0.05;81.21;98819.31;4937823;28;20470;-67
2023/11/23 04:14:05;;;;;;;20.80;13.00;;;1.30;76.30;;;0.45;80.84;98886.13;4944369;28;20591;-65
2023/11/23 04:16:32;;;;;;;17.30;12.80;;;1.30;76.10;;;0.41;81.04;98885.56;4936501;29;20468;-66
2023/11/23 04:19:00;;;;;;;18.60;12.37;;;1.30;75.90;;;0.35;80.97;98875.41;4933565;28;20503;-65
2023/11/23 04:21:27;;;;;;;20.53;13.90;;;1.30;75.90;;;0.27;80.92;98866.28;4936263;28;20457;-65
2023/11/23 04:23:54;;;;;;;18.03;13.47;;;1.30;76.00;;;0.35;81.51;98870.94;4942054;28;20947;-66
2023/11/23 04:26:23;;;;;;;18.87;13.03;;;1.30;76.20;;;0.30;81.67;98875.78;4930930;28;20468;-65
2023/11/23 04:28:51;;;;;;;20.20;13.90;;;1.30;76.30;;;0.39;81.39;98880.34;4937698;29;20459;-67
2023/11/23 04:31:18;;;;;;;19.83;13.83;;;1.30;76.30;;;0.35;81.58;98878.06;4934533;28;21347;-68
2023/11/23 04:33:45;;;;;;;19.20;13.07;;;1.30;76.30;;;0.40;81.44;98878.56;4936695;29;20842;-65
2023/11/23 04:36:13;;;;;;;18.37;12.93;;;1.30;76.30;;;0.26;81.77;98869.91;4935673;28;20537;-66
2023/11/23 04:38:40;;;;;;;18.30;13.67;;;1.30;76.50;;;0.14;82.42;98857.66;4941526;28;20538;-66
2023/11/23 04:41:07;;;;;;;20.70;14.37;;;1.10;76.60;;;0.07;82.88;98865.28;4945891;29;20513;-66
2023/11/23 04:43:36;;;;;;;20.13;12.90;;;1.00;76.90;;;-0.04;83.54;98862.66;4944881;28;20453;-65
2023/11/23 04:46:03;;;;;;;21.10;13.20;;;0.90;77.30;;;-0.20;84.67;98858.63;4945190;28;20920;-66
2023/11/23 04:48:30;;;;;;;22.33;13.93;;;0.80;77.80;;;-0.13;84.33;98853.63;4948951;28;20463;-65
2023/11/23 04:50:58;;;;;;;18.30;13.20;;;0.80;78.20;;;-0.18;84.42;98854.00;4935876;28;20478;-66
2023/11/23 04:53:26;;;;;;;22.33;14.73;;;0.80;78.30;;;-0.31;85.46;98846.22;4934399;28;20484;-67
2023/11/23 04:55:53;;;;;;;20.07;14.40;;;0.70;78.40;;;-0.26;85.34;98842.34;4941016;28;20464;-67
2023/11/23 04:58:20;;;;;;;19.20;13.03;;;0.70;78.80;;;-0.35;85.79;98857.22;4940630;28;20465;-65
2023/11/23 05:00:49;;;;;;;19.27;13.80;;;0.60;78.80;;;-0.41;85.70;98847.94;4947605;28;20485;-66
2023/11/23 05:03:16;;;;;;;19.30;13.80;;;0.60;79.10;;;-0.35;86.28;98851.91;4938734;28;20464;-66
2023/11/23 05:05:44;;;;;;;22.17;13.97;;;0.60;79.30;;;-0.40;86.12;98848.78;4946452;29;21077;-66
2023/11/23 05:08:11;;;;;;;21.00;13.83;;;0.50;79.60;;;-0.45;86.53;98847.34;4951213;28;20466;-66
2023/11/23 05:10:38;;;;;;;21.30;13.00;;;0.50;79.70;;;-0.49;86.75;98853.03;4949534;28;20451;-67
2023/11/23 05:13:06;;;;;;;23.30;14.43;;;0.50;79.90;;;-0.55;87.54;98854.38;4949207;28;20480;-67
2023/11/23 05:15:33;;;;;;;23.27;15.03;;;0.50;80.10;;;-0.54;87.64;98853.41;4947548;28;20454;-67
2023/11/23 05:18:02;;;;;;;18.63;13.63;;;0.40;80.30;;;-0.60;87.58;98837.97;4950385;29;20463;-66
2023/11/23 05:20:29;;;;;;;24.67;14.97;;;0.40;80.40;;;-0.58;87.86;98854.63;4951098;28;20970;-68
2023/11/23 05:22:56;;;;;;;23.00;15.03;;;0.30;80.50;;;-0.59;87.94;98852.94;4942009;28;20456;-66
2023/11/23 05:25:23;;;;;;;25.10;14.30;;;0.30;81.10;;;-0.51;87.43;98857.63;4943232;29;20491;-66
2023/11/23 05:27:50;;;;;;;21.63;13.87;;;0.40;81.00;;;-0.49;88.33;98853.03;4940496;28;20627;-65
2023/11/23 05:30:18;;;;;;;22.97;15.20;;;0.40;81.60;;;-0.51;87.86;98854.97;4938921;28;20466;-69
2023/11/23 05:32:46;;;;;;;21.97;13.93;;;0.50;81.40;;;-0.50;87.55;98851.34;4937161;28;20485;-67
2023/11/23 05:35:15;;;;;;;23.43;15.83;;;0.50;80.70;;;-0.49;87.80;98853.84;4937841;28;20973;-65
2023/11/23 05:37:42;;;;;;;20.50;14.60;;;0.50;81.30;;;-0.53;87.80;98851.56;4940246;28;20458;-66
2023/11/23 05:40:12;;;;;;;22.03;14.43;;;0.40;81.40;;;-0.49;87.99;98855.69;4949812;28;20541;-66
2023/11/23 05:42:40;;;;;;;23.30;15.67;;;0.50;81.60;;;-0.45;87.61;98865.09;4940628;28;20556;-66
2023/11/23 05:45:09;;;;;;;26.17;16.80;;;0.50;81.30;;;-0.52;87.78;98867.38;4939245;28;20472;-65
2023/11/23 05:47:36;;;;;;;21.30;13.60;;;0.40;81.30;;;-0.50;88.25;98873.41;4938433;28;22297;-66
2023/11/23 05:50:04;;;;;;;24.97;14.83;;;0.40;81.30;;;-0.44;87.55;98877.38;4940011;28;20954;-66
2023/11/23 05:52:32;;;;;;;21.60;15.10;;;0.40;81.40;;;-0.39;87.46;98877.84;4935425;28;20472;-69
2023/11/23 05:55:00;;;;;;;23.47;13.70;;;0.40;81.50;;;-0.36;87.34;98885.59;4937331;28;20480;-69
2023/11/23 05:57:27;;;;;;;24.20;15.00;;;0.50;81.50;;;-0.32;86.80;98879.06;4939756;28;20466;-68
2023/11/23 05:59:54;;;;;;;22.20;15.20;;;0.60;81.20;;;-0.26;86.34;98875.06;4955446;28;20524;-65
2023/11/23 06:02:22;;;;;;;24.40;15.80;;;0.70;80.80;;;-0.35;86.50;98871.34;4943325;28;20461;-66
2023/11/23 06:04:49;;;;;;;22.60;14.33;;;0.60;80.40;;;-0.30;87.07;98870.97;4944492;28;20550;-67
2023/11/23 06:07:16;;;;;;;22.80;15.40;;;0.60;81.40;;;-0.80;87.06;98795.28;4942128;28;20474;-66
2023/11/23 06:09:45;;;;;;;24.60;14.57;;;0.60;81.20;;;-0.34;87.45;98864.22;4940259;28;21256;-66
2023/11/23 06:12:12;;;;;;;21.60;15.07;;;0.60;81.50;;;-0.43;87.92;98868.44;4940740;28;20564;-66
2023/11/23 06:14:40;;;;;;;21.93;14.50;;;0.50;81.50;;;-0.45;88.04;98865.09;4941895;28;20486;-66
2023/11/23 06:17:10;;;;;;;23.97;15.07;;;0.50;81.50;;;-0.52;88.67;98863.91;4938569;29;20533;-66
2023/11/23 06:19:37;;;;;;;23.00;14.63;;;0.40;82.20;;;-0.49;88.28;98863.66;4953927;28;20536;-65
2023/11/23 06:22:05;;;;;;;22.37;14.77;;;0.40;81.90;;;-0.47;88.22;98853.75;4939299;28;20465;-66
2023/11/23 06:24:32;;;;;;;24.43;15.03;;;0.40;82.10;;;-0.48;88.42;98862.69;4940143;28;20486;-67
2023/11/23 06:27:00;;;;;;;26.27;16.10;;;0.50;82.30;;;-0.57;88.77;98853.66;4941304;29;20491;-67
2023/11/23 06:29:27;;;;;;;20.07;13.73;;;0.50;81.90;;;-0.40;88.09;98862.88;4943212;28;20808;-66
2023/11/23 06:31:56;;;;;;;25.70;15.67;;;0.50;82.10;;;-0.39;88.34;98874.38;4942485;29;20581;-68
2023/11/23 06:34:23;;;;;;;28.80;15.50;;;0.60;82.00;;;-0.33;88.22;98869.41;4942417;28;20490;-67
2023/11/23 06:36:51;;;;;;;23.47;15.00;;;0.60;82.00;;;-0.33;88.10;98863.25;4944511;28;21160;-68
2023/11/23 06:39:23;;;;;;;19.90;13.20;;;0.60;81.80;;;-0.24;89.56;98846.56;4944914;28;20470;-68
2023/11/23 06:41:52;;;;;;;21.47;13.73;;;0.70;83.30;;;0.21;90.25;98877.41;4945589;28;20883;-68
2023/11/23 06:44:21;;;;;;;19.30;13.43;;;1.00;85.10;;;0.40;90.30;98844.00;4945264;28;20515;-69
2023/11/23 06:46:48;;;;;;;20.97;14.27;;;1.30;85.30;;;0.16;86.82;98846.91;4953086;28;21440;-68
2023/11/23 06:49:16;;;;;;;19.97;15.10;;;1.20;82.20;;;0.05;86.59;98855.75;4954151;28;20464;-67
2023/11/23 06:51:43;;;;;;;22.27;15.20;;;1.10;81.00;;;0.06;87.47;98852.09;4933955;28;20464;-67
2023/11/23 06:54:10;;;;;;;24.20;15.20;;;1.00;81.60;;;-0.97;86.27;98687.88;4943963;29;20488;-67
2023/11/23 06:56:38;;;;;;;20.50;13.47;;;1.20;82.10;;;0.17;87.32;98843.25;4943921;29;20467;-68
2023/11/23 06:59:06;;;;;;;18.27;13.87;;;1.10;81.30;;;0.18;87.39;98821.84;4943702;28;21035;-68
2023/11/23 07:01:37;;;;;;;19.03;13.60;;;1.20;82.30;;;0.40;86.73;98830.69;4945739;29;20630;-69
2023/11/23 07:04:07;;;;;;;24.30;13.30;;;1.20;81.10;;;0.14;86.59;98797.34;4937550;28;20460;-68
2023/11/23 07:06:38;;;;;;;19.97;14.10;;;1.20;81.10;;;0.13;86.50;98824.06;4957700;28;20476;-68
2023/11/23 07:09:07;;;;;;;20.63;13.40;;;1.20;80.60;;;0.18;86.89;98771.34;4944166;28;21004;-70
2023/11/23 07:11:40;;;;;;;16.80;13.30;;;1.30;82.00;;;0.13;86.16;98757.63;4945577;28;20444;-67
2023/11/23 07:14:08;;;;;;;20.27;14.13;;;1.40;80.90;;;0.46;87.81;98819.53;4942094;28;20991;-71
2023/11/23 07:16:38;;;;;;;17.83;12.83;;;1.30;81.30;;;0.33;86.61;98794.94;4937464;28;20504;-69
2023/11/23 07:19:05;;;;;;;18.00;12.10;;;1.30;81.50;;;1.02;89.76;98817.41;4939772;28;20488;-67
2023/11/23 07:21:32;;;;;;;20.90;15.32;;;1.70;84.30;;;0.92;85.16;98827.16;4935822;28;20514;-66
2023/11/23 07:24:00;;;;;;;19.30;13.20;;;1.80;81.20;;;0.91;85.73;98826.34;4942019;28;20223;-65
2023/11/23 07:26:29;;;;;;;19.57;13.90;;;1.70;81.20;;;0.82;83.76;98827.94;4940713;28;20450;-66
2023/11/23 07:28:56;;;;;;;18.67;13.17;;;1.70;80.00;;;0.54;83.71;98835.69;4945018;28;20468;-67
2023/11/23 07:31:24;;;;;;;18.60;11.50;;;1.60;79.00;;;0.39;85.10;98839.66;4949308;28;20457;-68
2023/11/23 07:33:52;;;;;;;19.63;12.67;;;1.40;79.10;;;0.62;84.86;98848.31;4946077;28;21079;-66
2023/11/23 07:36:21;;;;;;;20.70;12.67;;;1.50;80.10;;;1.05;82.79;98835.75;4937617;28;20459;-69
2023/11/23 07:38:48;;;;;;;16.63;11.57;;;1.80;80.30;;;0.92;82.50;98853.78;4945137;28;20691;-67
2023/11/23 07:41:17;;;;;;;16.70;11.47;;;1.80;79.00;;;1.28;81.77;98848.84;4940516;28;20465;-68
2023/11/23 07:43:46;;;;;;;15.57;10.40;;;2.10;79.10;;;1.27;81.89;98848.03;4943642;28;20459;-68
2023/11/23 07:46:15;;;;;;;15.50;10.23;;;2.10;78.60;;;1.38;79.39;98788.50;4939903;28;20460;-68
2023/11/23 07:48:44;;;;;;;17.10;11.63;;;2.60;78.40;;;1.54;80.73;98856.38;4947799;28;20838;-68
2023/11/23 07:51:13;;;;;;;13.77;10.83;;;2.40;77.30;;;1.55;77.82;98860.72;4944259;28;20480;-66
2023/11/23 07:53:40;;;;;;;15.77;10.80;;;2.50;76.50;;;1.98;77.75;98853.34;4950149;28;20486;-67
2023/11/23 07:56:10;;;;;;;14.00;10.20;;;2.70;76.60;;;2.04;77.46;98843.94;4941545;28;20487;-67
2023/11/23 07:58:37;;;;;;;15.73;11.23;;;2.80;76.50;;;1.61;77.25;98838.88;4947129;28;20452;-67
2023/11/23 08:01:07;;;;;;;18.20;10.23;;;2.70;75.30;;;1.91;76.31;98845.06;4940494;28;20475;-66
2023/11/23 08:03:34;;;;;;;12.87;10.00;;;2.80;75.70;;;2.01;75.37;98845.06;4942846;28;20457;-67
2023/11/23 08:06:01;;;;;;;16.63;11.70;;;2.90;75.20;;;2.28;75.32;98851.53;4944951;28;20461;-66
2023/11/23 08:08:30;;;;;;;13.93;10.10;;;3.00;74.70;;;2.31;73.98;98842.38;4944459;28;20465;-68
2023/11/23 08:10:57;;;;;;;13.20;10.33;;;3.30;74.10;;;1.77;76.09;98848.16;4961699;28;20461;-67
2023/11/23 08:13:25;;;;;;;15.20;10.90;;;2.90;74.00;;;1.60;76.89;98847.84;4945774;28;20582;-69
2023/11/23 08:15:53;;;;;;;16.50;10.97;;;2.70;74.40;;;1.77;76.09;98832.97;4940934;28;20469;-68
2023/11/23 08:18:21;;;;;;;16.50;11.43;;;2.70;74.50;;;2.03;76.10;98847.56;4948524;28;20883;-68
2023/11/23 08:20:48;;;;;;;16.73;9.70;;;2.80;74.90;;;2.04;74.52;98849.25;4956287;28;20448;-68
2023/11/23 08:23:16;;;;;;;13.80;10.63;;;3.00;73.80;;;1.92;74.50;98849.41;4946146;28;20464;-68
2023/11/23 08:25:44;;;;;;;12.87;9.87;;;2.90;73.50;;;2.04;74.19;98839.47;4943854;28;20467;-68
2023/11/23 08:28:12;;;;;;;13.00;9.67;;;3.00;73.60;;;1.64;73.58;98757.81;4939525;28;20980;-69
2023/11/23 08:30:39;;;;;;;17.60;9.70;;;3.00;73.10;;;1.99;74.85;98833.72;4947055;28;20466;-68
2023/11/23 08:33:06;;;;;;;12.13;8.33;;;3.00;73.40;;;1.91;75.00;98834.41;4962079;28;22831;-68
2023/11/23 08:35:33;;;;;;;13.53;9.87;;;3.00;73.40;;;2.05;73.72;98834.97;4951309;28;20501;-70
2023/11/23 08:38:01;;;;;;;11.17;9.30;;;3.00;73.20;;;2.34;73.49;98842.09;4948300;28;20492;-69
2023/11/23 08:40:28;;;;;;;13.00;9.43;;;3.10;73.30;;;2.37;73.49;98831.16;4952138;28;20452;-68
2023/11/23 08:42:56;;;;;;;13.10;9.43;;;3.20;73.30;;;2.42;74.04;98839.56;4949129;28;20480;-68
2023/11/23 08:45:24;;;;;;;12.63;9.77;;;3.20;73.40;;;2.38;74.20;98830.19;4947999;28;20465;-69
2023/11/23 08:47:52;;;;;;;13.53;9.57;;;3.20;73.40;;;1.92;74.42;98741.94;4951327;28;20469;-69
2023/11/23 08:50:19;;;;;;;12.10;8.67;;;3.20;73.40;;;2.50;74.09;98807.69;4950404;28;20461;-71
2023/11/23 08:52:47;;;;;;;13.13;9.30;;;3.30;73.20;;;2.68;73.02;98798.94;4951406;28;20465;-68
2023/11/23 08:55:14;;;;;;;15.80;9.80;;;3.50;73.10;;;2.35;75.15;98793.09;4950868;28;20474;-68
2023/11/23 08:57:42;;;;;;;14.27;9.20;;;3.30;73.80;;;2.25;75.80;98790.44;4947537;29;20472;-68
2023/11/23 09:00:13;;;;;;;13.00;9.70;;;3.20;74.00;;;2.40;74.99;98788.19;4950188;28;20468;-69
2023/11/23 09:02:40;;;;;;;15.40;9.83;;;3.30;73.90;;;2.67;73.83;98783.91;4949675;28;20447;-69
2023/11/23 09:05:09;;;;;;;12.87;9.50;;;3.50;73.80;;;2.36;75.44;98773.47;4948423;28;20472;-68
2023/11/23 09:07:36;;;;;;;15.87;9.80;;;3.40;73.90;;;2.02;76.35;98707.28;4944188;28;20456;-69
2023/11/23 09:10:03;;;;;;;15.40;10.33;;;3.40;74.50;;;2.40;77.29;98756.19;4953074;28;20895;-68
2023/11/23 09:12:33;;;;;;;15.30;9.60;;;3.40;75.00;;;2.71;76.06;98755.94;4958289;28;20466;-67
2023/11/23 09:15:00;;;;;;;14.80;9.30;;;3.50;75.10;;;2.80;75.11;98764.88;4946793;28;20512;-67
2023/11/23 09:17:30;;;;;;;14.63;9.80;;;3.70;74.50;;;3.06;73.76;98765.03;4950526;28;20450;-67
2023/11/23 09:19:58;;;;;;;11.60;9.10;;;3.80;74.10;;;3.29;73.02;98766.44;4956419;28;20463;-68
2023/11/23 09:22:25;;;;;;;13.63;8.80;;;4.00;73.70;;;3.44;71.58;98766.78;4946369;28;20891;-68
2023/11/23 09:24:53;;;;;;;12.23;9.13;;;4.20;73.10;;;3.49;71.56;98737.78;4949577;29;20552;-68
2023/11/23 09:27:20;;;;;;;11.33;8.67;;;4.30;73.00;;;3.54;70.82;98762.19;4951672;28;20492;-69
2023/11/23 09:29:47;;;;;;;11.10;9.23;;;4.40;72.40;;;3.58;71.00;98757.41;4944193;28;20460;-68
2023/11/23 09:32:14;;;;;;;16.13;9.20;;;4.50;72.40;;;3.60;70.97;98742.03;4937910;28;21168;-68
2023/11/23 09:34:44;;;;;;;16.77;8.80;;;4.40;72.10;;;3.32;72.13;98742.97;4946676;28;20603;-67
2023/11/23 09:37:11;;;;;;;10.27;8.00;;;4.30;71.90;;;3.60;71.34;98734.03;4962093;28;20464;-68
2023/11/23 09:39:38;;;;;;;10.17;8.37;;;4.40;72.20;;;3.65;71.60;98740.59;4962642;28;20552;-70
2023/11/23 09:42:08;;;;;;;14.83;9.03;;;4.50;72.00;;;3.53;70.60;98693.72;4947986;28;20465;-68
2023/11/23 09:44:36;;;;;;;13.40;10.23;;;4.60;71.80;;;3.97;69.75;98736.50;4947468;28;20512;-69
2023/11/23 09:47:06;;;;;;;10.97;8.90;;;4.80;71.50;;;3.78;71.17;98732.19;4945820;28;20453;-68
2023/11/23 09:49:35;;;;;;;9.47;7.67;;;4.70;71.70;;;3.80;70.41;98721.34;4950548;28;20466;-67
2023/11/23 09:52:05;;;;;;;10.50;7.50;;;4.70;71.50;;;3.68;71.81;98721.56;4942724;28;20500;-69
2023/11/23 09:54:33;;;;;;;11.50;8.30;;;4.60;72.20;;;4.06;70.82;98718.69;4952871;28;20472;-67
2023/11/23 09:57:02;;;;;;;12.93;8.27;;;4.70;72.10;;;4.19;69.28;98701.41;4943690;28;20537;-69
2023/11/23 09:59:29;;;;;;;8.63;7.00;;;5.00;71.50;;;3.97;70.26;98690.25;4954158;28;20717;-68
2023/11/23 10:02:03;;;;;;;9.47;8.10;;;5.00;71.20;;;4.07;70.10;98682.09;4945288;28;20477;-67
2023/11/23 10:04:31;;;;;;;11.97;7.87;;;5.00;71.40;;;3.97;70.99;98672.34;4944380;28;20559;-68
2023/11/23 10:07:01;;;;;;;10.03;7.97;;;5.00;71.50;;;4.11;70.50;98629.97;4948504;28;20469;-68
2023/11/23 10:09:35;;;;;;;9.87;7.73;;;5.10;71.80;;;4.22;69.90;98648.44;4951593;28;20539;-68
2023/11/23 10:12:03;;;;;;;11.73;8.10;;;5.30;71.50;;;4.15;71.07;98631.31;4954123;28;20462;-67
2023/11/23 10:14:30;;;;;;;8.63;6.60;;;5.10;71.60;;;4.04;69.73;98548.72;4952395;28;20527;-68
2023/11/23 10:16:57;;;;;;;9.37;6.33;;;5.30;71.70;;;4.17;71.85;98618.66;4949221;28;20488;-68
2023/11/23 10:19:25;;;;;;;8.47;6.23;;;5.20;71.80;;;4.60;71.10;98617.81;4946976;28;20620;-69